createdAt,value
2018-12-15T00:00:45.039Z,101766.70
2018-12-15T00:03:32.469Z,101776.17
2018-12-15T00:06:19.536Z,101780.92
2018-12-15T00:09:07.273Z,101771.32
2018-12-15T00:11:55.457Z,101775.67
2018-12-15T00:14:43.148Z,101778.70
2018-12-15T00:17:30.729Z,101774.77
2018-12-15T00:20:18.798Z,101779.55
2018-12-15T00:23:07.293Z,101771.47
2018-12-15T00:25:54.743Z,101772.26
2018-12-15T00:28:42.125Z,101773.53
2018-12-15T00:31:29.430Z,101769.14
2018-12-15T00:34:16.303Z,101768.67
2018-12-15T00:37:03.484Z,101770.84
2018-12-15T00:39:50.349Z,101763.02
2018-12-15T00:42:37.122Z,101772.15
2018-12-15T00:48:31.298Z,101766.46
2018-12-15T00:51:18.443Z,101762.78
2018-12-15T00:54:05.791Z,101770.45
2018-12-15T00:56:55.105Z,101770.88
2018-12-15T00:59:42.805Z,101766.06
2018-12-15T01:02:31.183Z,101765.59
2018-12-15T01:05:23.271Z,101766.69
2018-12-15T01:08:11.814Z,101770.45
2018-12-15T01:10:58.990Z,101770.85
2018-12-15T01:13:46.325Z,101773.02
2018-12-15T01:16:34.420Z,101780.80
2018-12-15T01:19:21.434Z,101776.41
2018-12-15T01:22:08.789Z,101787.27
2018-12-15T01:24:56.419Z,101788.58
2018-12-15T01:27:44.319Z,101794.49
2018-12-15T01:30:31.930Z,101789.98
2018-12-15T01:33:19.416Z,101794.27
2018-12-15T01:36:07.248Z,101796.00
2018-12-15T01:38:54.781Z,101802.05
2018-12-15T01:41:42.162Z,101796.82
2018-12-15T01:44:30.372Z,101798.41
2018-12-15T01:47:18.175Z,101794.75
2018-12-15T01:50:05.800Z,101796.88
2018-12-15T01:52:53.373Z,101800.30
2018-12-15T01:55:40.958Z,101804.59
2018-12-15T01:58:28.443Z,101804.16
2018-12-15T02:01:15.885Z,101808.06
2018-12-15T02:04:03.359Z,101810.67
2018-12-15T02:06:50.937Z,101808.92
2018-12-15T02:09:38.755Z,101810.22
2018-12-15T02:12:27.596Z,101811.48
2018-12-15T02:15:15.195Z,101809.31
2018-12-15T02:18:03.440Z,101809.30
2018-12-15T02:20:53.661Z,101812.35
2018-12-15T02:23:41.139Z,101819.31
2018-12-15T02:26:29.121Z,101812.35
2018-12-15T02:29:17.441Z,101817.05
2018-12-15T02:32:05.174Z,101814.53
2018-12-15T02:34:54.293Z,101807.61
2018-12-15T02:37:41.393Z,101816.97
2018-12-15T02:40:28.723Z,101810.83
2018-12-15T02:43:25.485Z,101817.73
2018-12-15T02:46:13.026Z,101812.47
2018-12-15T02:49:03.139Z,101813.77
2018-12-15T02:51:53.457Z,101813.29
2018-12-15T02:54:46.025Z,101814.47
2018-12-15T02:57:33.947Z,101819.91
2018-12-15T03:00:21.802Z,101820.29
2018-12-15T03:03:08.456Z,101816.37
2018-12-15T03:05:55.368Z,101816.80
2018-12-15T03:08:42.855Z,101815.45
2018-12-15T03:11:30.663Z,101815.84
2018-12-15T03:14:17.896Z,101818.87
2018-12-15T03:17:13.407Z,101815.83
2018-12-15T03:20:00.520Z,101817.99
2018-12-15T03:22:50.209Z,101816.25
2018-12-15T03:25:37.641Z,101814.08
2018-12-15T03:28:26.811Z,101820.16
2018-12-15T03:31:14.170Z,101817.05
2018-12-15T03:34:02.255Z,101814.22
2018-12-15T03:36:49.724Z,101817.19
2018-12-15T03:39:36.993Z,101816.74
2018-12-15T03:42:25.425Z,101821.48
2018-12-15T03:45:12.605Z,101810.13
2018-12-15T03:48:00.367Z,101816.44
2018-12-15T03:50:47.799Z,101811.89
2018-12-15T03:53:35.324Z,101815.61
2018-12-15T03:56:22.745Z,101818.60
2018-12-15T03:59:19.393Z,101820.29
2018-12-15T04:02:06.452Z,101824.16
2018-12-15T04:04:53.744Z,101830.66
2018-12-15T04:07:41.067Z,101829.78
2018-12-15T04:10:28.334Z,101825.88
2018-12-15T04:13:15.713Z,101829.35
2018-12-15T04:16:02.583Z,101833.70
2018-12-15T04:18:50.621Z,101834.13
2018-12-15T04:21:37.432Z,101838.03
2018-12-15T04:24:25.042Z,101833.25
2018-12-15T04:27:20.021Z,101831.95
2018-12-15T04:30:07.213Z,101835.86
2018-12-15T04:32:54.568Z,101839.33
2018-12-15T04:35:41.568Z,101841.46
2018-12-15T04:38:28.930Z,101841.90
2018-12-15T04:41:15.736Z,101846.67
2018-12-15T04:44:02.854Z,101848.85
2018-12-15T04:46:50.445Z,101851.89
2018-12-15T04:49:37.906Z,101848.41
2018-12-15T04:52:24.828Z,101848.84
2018-12-15T04:55:11.824Z,101847.11
2018-12-15T04:57:59.151Z,101852.32
2018-12-15T05:00:46.370Z,101854.05
2018-12-15T05:03:33.415Z,101854.91
2018-12-15T05:06:20.776Z,101847.09
2018-12-15T05:09:08.231Z,101852.31
2018-12-15T05:11:55.681Z,101854.48
2018-12-15T05:14:43.265Z,101844.92
2018-12-15T05:17:30.708Z,101847.95
2018-12-15T05:20:18.716Z,101856.64
2018-12-15T05:23:06.448Z,101853.59
2018-12-15T05:25:56.318Z,101862.72
2018-12-15T05:28:49.521Z,101866.63
2018-12-15T05:31:36.694Z,101867.92
2018-12-15T05:34:24.426Z,101861.84
2018-12-15T05:37:11.433Z,101871.84
2018-12-15T05:39:58.934Z,101867.05
2018-12-15T05:42:47.191Z,101873.14
2018-12-15T05:45:34.266Z,101870.09
2018-12-15T05:48:25.079Z,101873.58
2018-12-15T05:54:17.213Z,101870.09
2018-12-15T05:57:06.100Z,101869.19
2018-12-15T05:59:53.331Z,101877.43
2018-12-15T06:02:40.702Z,101883.53
2018-12-15T06:05:28.021Z,101885.84
2018-12-15T06:08:14.976Z,101890.08
2018-12-15T06:11:02.443Z,101894.36
2018-12-15T06:13:49.683Z,101895.22
2018-12-15T06:16:37.199Z,101892.99
2018-12-15T06:19:24.256Z,101895.59
2018-12-15T06:22:11.406Z,101893.43
2018-12-15T06:24:59.062Z,101897.34
2018-12-15T06:27:46.263Z,101899.12
2018-12-15T06:30:36.746Z,101898.25
2018-12-15T06:33:25.794Z,101898.64
2018-12-15T06:36:12.750Z,101894.34
2018-12-15T06:39:10.246Z,101891.73
2018-12-15T06:41:57.113Z,101896.51
2018-12-15T06:44:45.490Z,101894.30
2018-12-15T06:47:33.425Z,101899.08
2018-12-15T06:50:21.594Z,101906.94
2018-12-15T06:53:08.708Z,101902.16
2018-12-15T06:55:55.992Z,101904.70
2018-12-15T06:58:43.446Z,101892.11
2018-12-15T07:01:30.679Z,101902.09
2018-12-15T07:04:18.170Z,101902.52
2018-12-15T07:07:05.301Z,101906.87
2018-12-15T07:09:53.141Z,101898.17
2018-12-15T07:12:40.171Z,101900.29
2018-12-15T07:15:28.182Z,101904.63
2018-12-15T07:18:15.377Z,101909.41
2018-12-15T07:21:05.117Z,101918.53
2018-12-15T07:23:53.769Z,101919.55
2018-12-15T07:26:41.866Z,101921.37
2018-12-15T07:29:29.144Z,101915.22
2018-12-15T07:32:16.687Z,101915.20
2018-12-15T07:35:03.722Z,101916.06
2018-12-15T07:37:52.076Z,101913.45
2018-12-15T07:40:39.679Z,101913.41
2018-12-15T07:43:32.691Z,101911.23
2018-12-15T07:46:19.939Z,101908.19
2018-12-15T07:49:07.227Z,101909.48
2018-12-15T07:51:54.496Z,101908.63
2018-12-15T07:54:41.948Z,101909.50
2018-12-15T07:57:29.668Z,101908.20
2018-12-15T08:00:19.676Z,101909.62
2018-12-15T08:03:07.709Z,101904.98
2018-12-15T08:05:54.739Z,101912.92
2018-12-15T08:08:42.092Z,101908.06
2018-12-15T08:11:47.524Z,101907.18
2018-12-15T08:14:35.291Z,101902.78
2018-12-15T08:17:31.228Z,101907.98
2018-12-15T08:20:18.037Z,101901.89
2018-12-15T08:23:05.781Z,101911.02
2018-12-15T08:28:58.985Z,101911.50
2018-12-15T08:31:46.500Z,101921.66
2018-12-15T08:34:33.327Z,101923.28
2018-12-15T08:37:20.185Z,101923.27
2018-12-15T08:40:07.761Z,101924.58
2018-12-15T08:42:55.196Z,101927.65
2018-12-15T08:45:44.767Z,101928.67
2018-12-15T08:48:33.253Z,101925.09
2018-12-15T08:51:20.547Z,101926.38
2018-12-15T08:54:11.601Z,101924.63
2018-12-15T08:56:58.835Z,101925.92
2018-12-15T08:59:46.114Z,101921.09
2018-12-15T09:02:33.233Z,101921.08
2018-12-15T09:05:20.456Z,101921.99
2018-12-15T09:08:07.626Z,101926.95
2018-12-15T09:10:54.777Z,101928.59
2018-12-15T09:13:43.233Z,101925.20
2018-12-15T09:16:30.549Z,101926.08
2018-12-15T09:19:25.399Z,101925.42
2018-12-15T09:22:12.254Z,101924.06
2018-12-15T09:24:59.139Z,101928.36
2018-12-15T09:27:46.529Z,101930.06
2018-12-15T09:30:33.734Z,101927.88
2018-12-15T09:33:21.838Z,101914.83
2018-12-15T09:39:18.494Z,101917.87
2018-12-15T09:42:07.134Z,101910.88
2018-12-15T09:44:54.658Z,101917.38
2018-12-15T09:50:47.346Z,101916.50
2018-12-15T09:53:34.729Z,101909.98
2018-12-15T09:56:21.537Z,101915.20
2018-12-15T09:59:08.589Z,101910.00
2018-12-15T10:01:55.674Z,101908.74
2018-12-15T10:04:42.860Z,101907.02
2018-12-15T10:07:29.995Z,101900.11
2018-12-15T10:10:17.276Z,101897.50
2018-12-15T10:13:04.452Z,101897.94
2018-12-15T10:15:51.510Z,101895.16
2018-12-15T10:18:38.360Z,101888.66
2018-12-15T10:21:26.709Z,101886.38
2018-12-15T10:24:13.786Z,101885.91
2018-12-15T10:27:00.649Z,101881.13
2018-12-15T10:30:05.967Z,101873.30
2018-12-15T10:32:54.278Z,101876.01
2018-12-15T10:35:41.212Z,101874.66
2018-12-15T10:38:28.523Z,101868.56
2018-12-15T10:41:15.374Z,101867.23
2018-12-15T10:44:02.430Z,101860.32
2018-12-15T10:46:50.081Z,101861.63
2018-12-15T10:49:36.976Z,101861.61
2018-12-15T10:52:24.115Z,101862.05
2018-12-15T10:55:11.318Z,101857.70
2018-12-15T10:57:58.637Z,101865.95
2018-12-15T11:00:57.624Z,101855.94
2018-12-15T11:03:44.578Z,101849.39
2018-12-15T11:06:31.850Z,101849.43
2018-12-15T11:09:19.182Z,101848.09
2018-12-15T11:12:06.698Z,101846.80
2018-12-15T11:14:56.999Z,101844.59
2018-12-15T11:17:45.018Z,101846.31
2018-12-15T11:20:32.248Z,101845.02
2018-12-15T11:23:19.618Z,101844.11
2018-12-15T11:26:07.404Z,101839.77
2018-12-15T11:28:54.722Z,101838.02
2018-12-15T11:34:49.724Z,101833.23
2018-12-15T11:40:42.056Z,101828.42
2018-12-15T11:43:30.835Z,101828.42
2018-12-15T11:46:16.452Z,101821.89
2018-12-15T11:49:03.545Z,101824.09
2018-12-15T11:54:57.116Z,101813.66
2018-12-15T11:57:50.307Z,101808.47
2018-12-15T12:00:40.003Z,101816.73
2018-12-15T12:03:26.998Z,101814.98
2018-12-15T12:06:14.100Z,101813.70
2018-12-15T12:09:01.490Z,101810.63
2018-12-15T12:11:49.023Z,101809.33
2018-12-15T12:14:36.165Z,101809.37
2018-12-15T12:17:23.010Z,101803.27
2018-12-15T12:20:10.016Z,101803.27
2018-12-15T12:22:57.114Z,101799.78
2018-12-15T12:25:46.380Z,101801.07
2018-12-15T12:28:34.338Z,101796.72
2018-12-15T12:31:21.352Z,101798.03
2018-12-15T12:34:08.502Z,101811.50
2018-12-15T12:36:56.044Z,101806.27
2018-12-15T12:39:46.016Z,101808.91
2018-12-15T12:42:33.665Z,101796.27
2018-12-15T12:45:20.897Z,101795.41
2018-12-15T12:48:07.837Z,101783.64
2018-12-15T12:50:55.476Z,101790.66
2018-12-15T12:58:54.562Z,101790.52
2018-12-15T13:01:42.067Z,101786.97
2018-12-15T13:04:29.192Z,101791.25
2018-12-15T13:07:16.812Z,101790.16
2018-12-15T13:10:04.462Z,101782.36
2018-12-15T13:12:52.136Z,101791.31
2018-12-15T13:15:39.813Z,101790.17
2018-12-15T13:18:26.938Z,101790.64
2018-12-15T13:21:14.430Z,101794.12
2018-12-15T13:24:01.594Z,101793.70
2018-12-15T13:26:48.414Z,101793.71
2018-12-15T13:29:35.642Z,101799.34
2018-12-15T13:32:22.954Z,101797.62
2018-12-15T13:35:10.171Z,101797.16
2018-12-15T13:37:57.395Z,101801.52
2018-12-15T13:40:44.503Z,101792.38
2018-12-15T13:43:31.759Z,101794.53
2018-12-15T13:46:20.272Z,101788.42
2018-12-15T13:49:08.958Z,101795.00
2018-12-15T13:51:56.226Z,101791.08
2018-12-15T13:54:43.497Z,101794.10
2018-12-15T13:57:30.384Z,101794.51
2018-12-15T14:03:35.721Z,101798.00
2018-12-15T14:06:23.754Z,101800.58
2018-12-15T14:09:10.723Z,101794.49
2018-12-15T14:11:59.936Z,101790.58
2018-12-15T14:14:50.149Z,101794.03
2018-12-15T14:17:37.525Z,101787.48
2018-12-15T14:20:24.868Z,101789.19
2018-12-15T14:23:15.661Z,101789.14
2018-12-15T14:26:02.852Z,101788.70
2018-12-15T14:28:50.723Z,101782.59
2018-12-15T14:31:38.289Z,101782.16
2018-12-15T14:34:25.606Z,101780.41
2018-12-15T14:37:13.011Z,101772.36
2018-12-15T14:40:00.609Z,101778.71
2018-12-15T14:42:48.480Z,101774.52
2018-12-15T14:45:36.003Z,101772.66
2018-12-15T14:48:23.532Z,101767.84
2018-12-15T14:51:23.296Z,101768.67
2018-12-15T14:54:10.824Z,101765.59
2018-12-15T14:56:57.942Z,101761.64
2018-12-15T14:59:44.751Z,101758.84
2018-12-15T15:05:40.811Z,101760.81
2018-12-15T15:08:33.035Z,101750.81
2018-12-15T15:11:23.473Z,101758.20
2018-12-15T15:14:11.175Z,101748.86
2018-12-15T15:17:05.589Z,101748.86
2018-12-15T15:19:53.605Z,101745.70
2018-12-15T15:22:41.255Z,101746.98
2018-12-15T15:25:39.899Z,101733.19
2018-12-15T15:28:27.766Z,101739.19
2018-12-15T15:31:30.664Z,101737.38
2018-12-15T15:34:20.847Z,101730.86
2018-12-15T15:37:13.368Z,101736.91
2018-12-15T15:40:01.198Z,101733.43
2018-12-15T15:42:49.221Z,101728.65
2018-12-15T15:45:37.119Z,101720.55
2018-12-15T15:48:24.720Z,101719.59
2018-12-15T15:51:12.251Z,101726.52
2018-12-15T15:53:59.470Z,101730.83
2018-12-15T15:56:47.089Z,101735.56
2018-12-15T15:59:40.957Z,101732.95
2018-12-15T16:02:27.963Z,101731.61
2018-12-15T16:05:16.176Z,101726.39
2018-12-15T16:08:04.456Z,101728.13
2018-12-15T16:10:54.411Z,101721.14
2018-12-15T16:13:42.617Z,101707.92
2018-12-15T16:16:42.105Z,101715.18
2018-12-15T16:19:29.475Z,101713.41
2018-12-15T16:22:17.196Z,101706.41
2018-12-15T16:25:04.357Z,101705.97
2018-12-15T16:27:52.175Z,101692.27
2018-12-15T16:30:43.053Z,101697.33
2018-12-15T16:33:33.627Z,101690.34
2018-12-15T16:36:21.293Z,101702.45
2018-12-15T16:39:08.765Z,101699.41
2018-12-15T16:41:55.944Z,101695.47
2018-12-15T16:44:43.637Z,101684.42
2018-12-15T16:47:31.142Z,101688.20
2018-12-15T16:50:33.632Z,101683.12
2018-12-15T16:53:20.622Z,101681.25
2018-12-15T16:56:09.983Z,101687.73
2018-12-15T16:58:59.113Z,101685.52
2018-12-15T17:01:54.068Z,101682.05
2018-12-15T17:04:41.140Z,101668.77
2018-12-15T17:07:28.097Z,101661.30
2018-12-15T17:10:15.866Z,101664.31
2018-12-15T17:13:03.933Z,101669.48
2018-12-15T17:15:52.881Z,101659.89
2018-12-15T17:21:47.214Z,101660.72
2018-12-15T17:24:34.468Z,101665.92
2018-12-15T17:27:22.236Z,101669.80
2018-12-15T17:30:09.227Z,101664.16
2018-12-15T17:32:56.197Z,101656.38
2018-12-15T17:35:44.916Z,101650.26
2018-12-15T17:38:32.568Z,101646.78
2018-12-15T17:41:19.376Z,101639.80
2018-12-15T17:44:06.430Z,101633.28
2018-12-15T17:46:53.743Z,101638.92
2018-12-15T17:49:41.323Z,101630.23
2018-12-15T17:52:28.710Z,101623.53
2018-12-15T17:55:17.861Z,101620.80
2018-12-15T17:58:05.253Z,101620.34
2018-12-15T18:00:52.880Z,101626.41
2018-12-15T18:03:40.186Z,101618.32
2018-12-15T18:06:27.098Z,101606.06
2018-12-15T18:09:30.956Z,101611.68
2018-12-15T18:15:25.235Z,101603.43
2018-12-15T18:18:17.350Z,101601.26
2018-12-15T18:21:09.935Z,101602.09
2018-12-15T18:23:55.106Z,101593.84
2018-12-15T18:26:42.382Z,101592.55
2018-12-15T18:29:29.834Z,101588.20
2018-12-15T18:32:17.122Z,101589.94
2018-12-15T18:35:04.368Z,101593.37
2018-12-15T18:37:51.516Z,101586.83
2018-12-15T18:40:39.192Z,101573.33
2018-12-15T18:43:26.473Z,101577.62
2018-12-15T18:46:13.683Z,101572.37
2018-12-15T18:49:17.291Z,101576.66
2018-12-15T18:52:13.403Z,101564.75
2018-12-15T18:55:01.669Z,101571.50
2018-12-15T18:57:51.977Z,101568.22
2018-12-15T19:00:44.391Z,101561.52
2018-12-15T19:03:31.242Z,101558.23
2018-12-15T19:06:18.392Z,101547.16
2018-12-15T19:09:05.307Z,101553.13
2018-12-15T19:11:52.785Z,101550.03
2018-12-15T19:14:43.009Z,101543.46
2018-12-15T19:17:30.403Z,101535.97
2018-12-15T19:20:25.710Z,101529.63
2018-12-15T19:26:18.623Z,101537.68
2018-12-15T19:29:05.838Z,101534.16
2018-12-15T19:31:52.997Z,101535.88
2018-12-15T19:34:40.405Z,101530.67
2018-12-15T19:37:27.509Z,101533.71
2018-12-15T19:40:15.027Z,101523.74
2018-12-15T19:43:01.918Z,101516.81
2018-12-15T19:45:49.403Z,101509.38
2018-12-15T19:48:39.390Z,101512.17
2018-12-15T19:51:29.703Z,101503.01
2018-12-15T19:54:13.886Z,101492.92
2018-12-15T19:57:00.751Z,101496.58
2018-12-15T19:59:48.021Z,101494.34
2018-12-15T20:02:35.483Z,101489.09
2018-12-15T20:05:22.513Z,101495.56
2018-12-15T20:08:09.961Z,101496.39
2018-12-15T20:10:58.987Z,101487.28
2018-12-15T20:13:46.204Z,101479.05
2018-12-15T20:16:34.133Z,101473.37
2018-12-15T20:19:29.850Z,101466.50
2018-12-15T20:22:17.129Z,101463.25
2018-12-15T20:25:04.393Z,101464.50
2018-12-15T20:27:54.092Z,101453.66
2018-12-15T20:30:57.239Z,101457.56
2018-12-15T20:33:44.138Z,101454.53
2018-12-15T20:36:33.437Z,101444.83
2018-12-15T20:39:20.644Z,101456.81
2018-12-15T20:42:08.120Z,101452.90
2018-12-15T20:44:55.387Z,101446.83
2018-12-15T20:47:42.802Z,101439.23
2018-12-15T20:50:30.035Z,101438.23
2018-12-15T20:53:18.061Z,101433.03
2018-12-15T21:05:45.446Z,101412.67
2018-12-15T21:08:34.613Z,101407.47
2018-12-15T21:11:24.253Z,101410.06
2018-12-15T21:14:09.260Z,101413.54
2018-12-15T21:16:57.570Z,101407.13
2018-12-15T21:19:48.039Z,101397.55
2018-12-15T21:22:34.029Z,101394.94
2018-12-15T21:25:21.440Z,101397.55
2018-12-15T21:28:08.959Z,101389.29
2018-12-15T21:30:56.365Z,101387.13
2018-12-15T21:33:45.710Z,101383.23
2018-12-15T21:36:34.660Z,101381.03
2018-12-15T21:39:22.050Z,101372.80
2018-12-15T21:42:09.573Z,101366.28
2018-12-15T21:44:56.859Z,101355.44
2018-12-15T21:47:45.408Z,101357.18
2018-12-15T21:50:32.245Z,101347.63
2018-12-15T21:53:19.299Z,101332.45
2018-12-15T21:56:06.849Z,101327.66
2018-12-15T21:58:54.327Z,101335.47
2018-12-15T22:07:57.097Z,101316.80
2018-12-15T22:10:43.677Z,101311.62
2018-12-15T22:13:30.443Z,101309.86
2018-12-15T22:19:23.174Z,101302.92
2018-12-15T22:22:13.111Z,101291.20
2018-12-15T22:25:10.580Z,101286.00
2018-12-15T22:27:57.540Z,101281.92
2018-12-15T22:30:44.373Z,101279.89
2018-12-15T22:33:33.393Z,101281.66
2018-12-15T22:36:20.814Z,101269.48
2018-12-15T22:39:08.193Z,101260.80
2018-12-15T22:41:55.030Z,101263.41
2018-12-15T22:44:42.168Z,101261.67
2018-12-15T22:47:29.316Z,101258.20
2018-12-15T22:50:18.392Z,101250.40
2018-12-15T22:53:05.490Z,101253.87
2018-12-15T22:55:52.869Z,101249.96
2018-12-15T22:58:39.949Z,101251.27
2018-12-15T23:01:38.636Z,101241.28
2018-12-15T23:04:26.926Z,101244.75
2018-12-15T23:07:21.028Z,101244.74
2018-12-15T23:10:11.212Z,101239.96
2018-12-15T23:13:01.866Z,101238.23
2018-12-15T23:15:52.282Z,101234.34
2018-12-15T23:18:39.334Z,101228.70
2018-12-15T23:21:27.685Z,101226.09
2018-12-15T23:27:25.122Z,101213.91
2018-12-15T23:30:15.099Z,101205.25
2018-12-15T23:33:02.537Z,101205.69
2018-12-15T23:42:12.445Z,101184.05
2018-12-15T23:44:59.690Z,101178.67
2018-12-15T23:47:46.995Z,101178.70
2018-12-15T23:50:38.513Z,101174.34
2018-12-15T23:53:26.008Z,101166.99
2018-12-15T23:56:13.095Z,101166.14
2018-12-15T23:59:00.058Z,101160.55
